createdAt,value
2023-04-29T00:00:20.900Z,33.92
2023-04-29T00:03:23.576Z,33.45
2023-04-29T00:06:28.145Z,29.10
2023-04-29T00:09:30.665Z,32.00
2023-04-29T00:12:33.442Z,32.38
2023-04-29T00:15:37.426Z,29.75
2023-04-29T00:18:39.947Z,29.85
2023-04-29T00:21:43.851Z,30.17
2023-04-29T00:24:46.369Z,38.50
2023-04-29T00:27:48.897Z,32.60
2023-04-29T00:30:51.697Z,29.23
2023-04-29T00:33:54.299Z,33.05
2023-04-29T00:36:58.208Z,35.22
2023-04-29T00:40:00.774Z,36.63
2023-04-29T00:43:03.370Z,48.75
2023-04-29T00:46:06.045Z,32.33
2023-04-29T00:49:08.582Z,30.45
2023-04-29T00:52:12.752Z,32.28
2023-04-29T00:55:15.340Z,30.88
2023-04-29T00:58:18.417Z,27.15
2023-04-29T01:01:21.771Z,26.35
2023-04-29T01:04:24.391Z,29.67
2023-04-29T01:07:31.457Z,30.73
2023-04-29T01:10:36.824Z,27.35
2023-04-29T01:13:43.761Z,34.60
2023-04-29T01:16:49.587Z,29.65
2023-04-29T01:19:55.082Z,29.20
2023-04-29T01:22:58.999Z,26.40
2023-04-29T01:26:02.842Z,29.15
2023-04-29T01:29:11.745Z,29.73
2023-04-29T01:32:15.888Z,28.35
2023-04-29T01:35:26.648Z,28.15
2023-04-29T01:38:34.076Z,28.38
2023-04-29T01:44:43.087Z,31.27
2023-04-29T01:47:46.221Z,28.95
2023-04-29T01:50:48.839Z,31.52
2023-04-29T01:53:51.603Z,30.20
2023-04-29T01:56:55.484Z,27.15
2023-04-29T01:59:58.159Z,33.33
2023-04-29T02:03:00.874Z,27.80
2023-04-29T02:06:04.352Z,28.90
2023-04-29T02:09:06.975Z,27.77
2023-04-29T02:12:10.900Z,25.15
2023-04-29T02:15:13.504Z,29.63
2023-04-29T02:18:16.069Z,28.42
2023-04-29T02:21:18.585Z,20.67
2023-04-29T02:24:21.088Z,27.98
2023-04-29T02:27:25.032Z,23.02
2023-04-29T02:30:27.626Z,28.00
2023-04-29T02:33:30.220Z,22.45
2023-04-29T02:36:32.777Z,21.48
2023-04-29T02:39:35.333Z,19.50
2023-04-29T02:42:39.198Z,21.42
2023-04-29T02:45:41.721Z,23.40
2023-04-29T02:48:44.319Z,22.48
2023-04-29T02:51:49.538Z,22.95
2023-04-29T02:54:52.095Z,19.80
2023-04-29T02:57:55.946Z,19.17
2023-04-29T03:00:58.472Z,24.38
2023-04-29T03:04:01.368Z,21.38
2023-04-29T03:07:04.808Z,23.02
2023-04-29T03:10:08.978Z,24.38
2023-04-29T03:13:12.893Z,24.13
2023-04-29T03:16:16.873Z,21.58
2023-04-29T03:19:19.556Z,26.00
2023-04-29T03:22:22.097Z,26.33
2023-04-29T03:25:24.875Z,25.40
2023-04-29T03:28:28.725Z,21.25
2023-04-29T03:31:31.340Z,22.35
2023-04-29T03:34:34.298Z,26.40
2023-04-29T03:37:37.097Z,26.27
2023-04-29T03:40:39.672Z,34.78
2023-04-29T03:43:44.533Z,29.45
2023-04-29T03:46:47.094Z,24.77
2023-04-29T03:49:49.720Z,26.67
2023-04-29T03:52:52.327Z,25.42
2023-04-29T03:55:54.877Z,22.05
2023-04-29T03:58:58.880Z,21.08
2023-04-29T04:02:01.485Z,22.48
2023-04-29T04:05:04.183Z,23.95
2023-04-29T04:08:06.887Z,26.92
2023-04-29T04:11:09.713Z,26.42
2023-04-29T04:14:13.958Z,23.58
2023-04-29T04:17:16.463Z,30.48
2023-04-29T04:20:19.387Z,22.33
2023-04-29T04:23:21.932Z,25.67
2023-04-29T04:26:24.509Z,25.05
2023-04-29T04:29:28.409Z,27.60
2023-04-29T04:32:31.024Z,34.20
2023-04-29T04:35:33.636Z,25.95
2023-04-29T04:38:36.208Z,29.05
2023-04-29T04:41:39.535Z,28.30
2023-04-29T04:44:43.452Z,30.77
2023-04-29T04:47:46.021Z,31.88
2023-04-29T04:50:48.604Z,27.23
2023-04-29T04:53:51.597Z,26.27
2023-04-29T04:56:54.142Z,26.45
2023-04-29T04:59:58.088Z,35.80
2023-04-29T05:03:00.910Z,33.63
2023-04-29T05:06:03.514Z,32.10
2023-04-29T05:09:06.300Z,27.48
2023-04-29T05:12:08.826Z,37.17
2023-04-29T05:15:14.855Z,40.63
2023-04-29T05:18:17.423Z,30.67
2023-04-29T05:21:19.992Z,32.35
2023-04-29T05:24:22.502Z,41.03
2023-04-29T05:27:25.172Z,34.58
2023-04-29T05:30:29.070Z,38.85
2023-04-29T05:33:31.589Z,38.47
2023-04-29T05:36:34.152Z,31.90
2023-04-29T05:39:36.708Z,34.08
2023-04-29T05:42:39.276Z,33.75
2023-04-29T05:45:43.171Z,31.80
2023-04-29T05:48:46.080Z,35.53
2023-04-29T05:51:48.655Z,30.20
2023-04-29T05:54:51.356Z,31.50
2023-04-29T05:57:53.921Z,33.42
2023-04-29T06:00:59.923Z,37.20
2023-04-29T06:04:02.861Z,36.03
2023-04-29T06:07:05.755Z,26.15
2023-04-29T06:10:09.560Z,28.98
2023-04-29T06:13:12.125Z,30.30
2023-04-29T06:16:16.091Z,24.73
2023-04-29T06:19:19.219Z,23.70
2023-04-29T06:22:21.768Z,23.40
2023-04-29T06:25:24.346Z,21.75
2023-04-29T06:28:27.008Z,25.50
2023-04-29T06:31:30.977Z,22.83
2023-04-29T06:34:33.737Z,23.73
2023-04-29T06:37:37.938Z,23.10
2023-04-29T06:40:40.811Z,28.67
2023-04-29T06:43:43.696Z,25.38
2023-04-29T06:46:47.786Z,20.17
2023-04-29T06:49:50.806Z,25.58
2023-04-29T06:52:54.091Z,21.80
2023-04-29T06:55:56.640Z,19.38
2023-04-29T06:58:59.161Z,19.83
2023-04-29T07:02:02.977Z,19.33
2023-04-29T07:05:06.294Z,22.30
2023-04-29T07:08:09.984Z,15.10
2023-04-29T07:11:12.892Z,16.20
2023-04-29T07:14:16.015Z,14.20
2023-04-29T07:17:20.648Z,12.73
2023-04-29T07:20:23.310Z,16.25
2023-04-29T07:23:26.169Z,15.48
2023-04-29T07:26:28.730Z,15.15
2023-04-29T07:29:31.294Z,10.73
2023-04-29T07:32:35.541Z,17.40
2023-04-29T07:35:38.155Z,15.65
2023-04-29T07:38:40.701Z,15.02
2023-04-29T07:41:43.284Z,16.33
2023-04-29T07:44:46.188Z,14.52
2023-04-29T07:47:50.144Z,18.58
2023-04-29T07:50:52.754Z,14.73
2023-04-29T07:53:55.302Z,16.05
2023-04-29T07:56:58.913Z,15.73
2023-04-29T08:00:01.487Z,13.55
2023-04-29T08:03:05.545Z,15.25
2023-04-29T08:06:08.324Z,15.85
2023-04-29T08:09:11.326Z,12.10
2023-04-29T08:12:13.905Z,12.20
2023-04-29T08:15:16.675Z,11.77
2023-04-29T08:18:21.177Z,15.52
2023-04-29T08:21:23.744Z,14.45
2023-04-29T08:24:26.552Z,14.38
2023-04-29T08:27:29.109Z,12.23
2023-04-29T08:30:31.666Z,14.73
2023-04-29T08:33:35.883Z,13.27
2023-04-29T08:36:38.624Z,16.85
2023-04-29T08:39:43.295Z,12.52
2023-04-29T08:42:47.437Z,12.13
2023-04-29T08:45:51.479Z,8.73
2023-04-29T08:48:56.388Z,13.38
2023-04-29T08:51:58.977Z,14.15
2023-04-29T08:55:02.493Z,8.93
2023-04-29T08:58:05.088Z,15.10
2023-04-29T09:01:09.164Z,11.52
2023-04-29T09:04:24.731Z,9.30
2023-04-29T09:07:27.298Z,11.20
2023-04-29T09:10:29.857Z,13.88
2023-04-29T09:13:32.934Z,12.80
2023-04-29T09:16:37.351Z,17.58
2023-04-29T09:19:41.298Z,14.68
2023-04-29T09:22:48.498Z,13.38
2023-04-29T09:29:07.777Z,8.43
2023-04-29T09:32:20.255Z,12.55
2023-04-29T09:35:25.537Z,12.55
2023-04-29T09:38:28.176Z,9.50
2023-04-29T09:41:30.734Z,10.88
2023-04-29T09:44:35.788Z,13.35
2023-04-29T09:47:38.471Z,9.15
2023-04-29T09:50:43.637Z,6.80
2023-04-29T09:53:46.507Z,14.68
2023-04-29T09:56:49.924Z,14.98
2023-04-29T09:59:52.469Z,14.27
2023-04-29T10:02:55.372Z,13.52
2023-04-29T10:05:59.568Z,9.73
2023-04-29T10:09:02.123Z,12.02
2023-04-29T10:12:04.964Z,11.35
2023-04-29T10:15:10.862Z,8.52
2023-04-29T10:18:15.511Z,15.95
2023-04-29T10:21:19.429Z,15.30
2023-04-29T10:24:21.997Z,9.68
2023-04-29T10:27:25.393Z,13.98
2023-04-29T10:30:27.974Z,10.13
2023-04-29T10:33:32.238Z,10.35
2023-04-29T10:36:36.172Z,9.27
2023-04-29T10:39:43.600Z,13.52
2023-04-29T10:42:47.060Z,14.13
2023-04-29T10:45:49.608Z,11.93
2023-04-29T10:48:55.396Z,14.05
2023-04-29T10:52:04.339Z,11.60
2023-04-29T10:55:07.943Z,11.43
2023-04-29T10:58:45.723Z,8.85
2023-04-29T11:01:49.523Z,7.93
2023-04-29T11:05:12.184Z,12.65
2023-04-29T11:08:22.934Z,9.73
2023-04-29T11:11:27.119Z,10.32
2023-04-29T11:14:37.487Z,9.25
2023-04-29T11:17:40.510Z,9.35
2023-04-29T11:21:13.816Z,12.05
2023-04-29T11:24:17.871Z,9.50
2023-04-29T11:27:22.772Z,9.70
2023-04-29T11:30:25.703Z,9.65
2023-04-29T11:33:28.666Z,8.25
2023-04-29T11:36:32.738Z,10.50
2023-04-29T11:39:36.796Z,8.05
2023-04-29T11:42:42.335Z,7.72
2023-04-29T11:45:46.230Z,14.07
2023-04-29T11:48:48.889Z,6.78
2023-04-29T11:51:51.814Z,7.85
2023-04-29T11:54:55.826Z,10.40
2023-04-29T11:57:58.439Z,12.52
2023-04-29T12:01:00.953Z,12.15
2023-04-29T12:04:05.876Z,9.30
2023-04-29T12:07:10.894Z,11.13
2023-04-29T12:10:14.664Z,8.63
2023-04-29T12:13:17.693Z,9.18
2023-04-29T12:16:20.464Z,8.10
2023-04-29T12:19:23.656Z,9.50
2023-04-29T12:22:32.204Z,14.23
2023-04-29T12:25:36.091Z,12.07
2023-04-29T12:28:38.812Z,9.80
2023-04-29T12:31:41.742Z,8.50
2023-04-29T12:34:45.638Z,8.65
2023-04-29T12:37:51.641Z,8.80
2023-04-29T12:40:55.845Z,12.27
2023-04-29T12:43:58.344Z,9.65
2023-04-29T12:47:08.944Z,9.55
2023-04-29T12:50:11.869Z,9.32
2023-04-29T12:53:14.360Z,12.15
2023-04-29T12:56:18.264Z,8.43
2023-04-29T12:59:21.196Z,10.88
2023-04-29T13:02:23.905Z,9.20
2023-04-29T13:05:26.488Z,7.88
2023-04-29T13:08:29.064Z,7.72
2023-04-29T13:11:34.872Z,11.30
2023-04-29T13:14:37.574Z,8.05
2023-04-29T13:17:40.243Z,8.25
2023-04-29T13:20:42.844Z,9.07
2023-04-29T13:23:46.268Z,7.47
2023-04-29T13:26:52.411Z,11.20
2023-04-29T13:29:56.155Z,10.43
2023-04-29T13:33:04.385Z,11.40
2023-04-29T13:36:14.105Z,5.78
2023-04-29T13:39:17.472Z,15.52
2023-04-29T13:42:25.493Z,6.97
2023-04-29T13:45:29.380Z,8.95
2023-04-29T13:49:08.179Z,7.57
2023-04-29T13:52:37.576Z,6.75
2023-04-29T13:56:01.609Z,7.45
2023-04-29T13:59:30.755Z,10.35
2023-04-29T14:05:10.643Z,8.85
2023-04-29T14:08:14.037Z,7.68
2023-04-29T14:11:16.924Z,7.63
2023-04-29T14:14:20.803Z,10.52
2023-04-29T14:17:23.381Z,11.45
2023-04-29T14:20:25.932Z,8.00
2023-04-29T14:23:28.507Z,7.22
2023-04-29T14:26:31.178Z,6.82
2023-04-29T14:29:35.159Z,10.63
2023-04-29T14:32:37.765Z,10.10
2023-04-29T14:35:41.017Z,8.23
2023-04-29T14:38:43.604Z,9.55
2023-04-29T14:41:46.727Z,6.45
2023-04-29T14:44:51.528Z,7.05
2023-04-29T14:47:54.230Z,15.32
2023-04-29T14:50:56.833Z,9.60
2023-04-29T14:53:59.379Z,11.88
2023-04-29T14:57:02.111Z,9.07
2023-04-29T15:00:08.237Z,8.63
2023-04-29T15:03:10.933Z,9.80
2023-04-29T15:06:13.969Z,6.68
2023-04-29T15:09:16.633Z,7.90
2023-04-29T15:12:21.024Z,6.82
2023-04-29T15:15:24.976Z,6.75
2023-04-29T15:18:27.506Z,15.40
2023-04-29T15:21:30.136Z,18.05
2023-04-29T15:24:32.694Z,42.53
2023-04-29T15:27:35.575Z,31.08
2023-04-29T15:30:39.508Z,12.48
2023-04-29T15:33:42.196Z,11.02
2023-04-29T15:36:44.766Z,10.00
2023-04-29T15:39:47.272Z,8.57
2023-04-29T15:42:49.798Z,6.88
2023-04-29T15:45:53.787Z,7.10
2023-04-29T15:48:56.420Z,10.20
2023-04-29T15:51:58.936Z,10.57
2023-04-29T15:55:01.435Z,7.40
2023-04-29T15:58:03.953Z,12.10
2023-04-29T16:01:07.918Z,7.15
2023-04-29T16:04:10.688Z,5.88
2023-04-29T16:07:13.336Z,9.00
2023-04-29T16:10:15.837Z,7.65
2023-04-29T16:13:18.377Z,10.43
2023-04-29T16:16:23.334Z,6.22
2023-04-29T16:19:25.955Z,5.63
2023-04-29T16:22:28.855Z,3.60
2023-04-29T16:25:31.425Z,7.25
2023-04-29T16:28:34.011Z,7.63
2023-04-29T16:31:38.170Z,5.18
2023-04-29T16:34:41.731Z,4.80
2023-04-29T16:37:44.293Z,3.65
2023-04-29T16:40:48.197Z,5.55
2023-04-29T16:43:52.039Z,9.60
2023-04-29T16:46:55.966Z,13.05
2023-04-29T16:49:58.486Z,6.47
2023-04-29T16:53:01.144Z,3.55
2023-04-29T16:56:03.796Z,7.47
2023-04-29T16:59:06.464Z,5.53
2023-04-29T17:02:10.309Z,5.22
2023-04-29T17:05:12.876Z,7.22
2023-04-29T17:08:15.460Z,5.18
2023-04-29T17:11:18.264Z,8.20
2023-04-29T17:14:20.784Z,5.10
2023-04-29T17:17:24.757Z,8.10
2023-04-29T17:20:27.348Z,8.15
2023-04-29T17:23:30.517Z,9.27
2023-04-29T17:26:33.292Z,3.97
2023-04-29T17:29:35.818Z,5.18
2023-04-29T17:32:39.875Z,5.68
2023-04-29T17:35:42.399Z,8.52
2023-04-29T17:38:44.964Z,5.53
2023-04-29T17:41:47.536Z,6.43
2023-04-29T17:44:50.127Z,9.68
2023-04-29T17:47:54.054Z,6.25
2023-04-29T17:50:56.607Z,5.50
2023-04-29T17:53:59.308Z,7.47
2023-04-29T17:57:03.211Z,5.32
2023-04-29T18:00:07.280Z,1.98
2023-04-29T18:03:11.236Z,7.50
2023-04-29T18:06:13.897Z,2.53
2023-04-29T18:09:17.774Z,7.60
2023-04-29T18:12:20.661Z,4.10
2023-04-29T18:15:23.228Z,4.47
2023-04-29T18:18:27.283Z,6.43
2023-04-29T18:21:30.179Z,6.80
2023-04-29T18:24:32.728Z,4.00
2023-04-29T18:27:35.317Z,5.25
2023-04-29T18:30:37.852Z,5.07
2023-04-29T18:33:41.963Z,4.28
2023-04-29T18:36:44.553Z,8.98
2023-04-29T18:39:47.128Z,4.25
2023-04-29T18:42:49.681Z,3.10
2023-04-29T18:45:52.460Z,6.28
2023-04-29T18:48:56.345Z,2.33
2023-04-29T18:52:01.093Z,5.70
2023-04-29T18:55:04.358Z,7.18
2023-04-29T18:58:06.887Z,7.53
2023-04-29T19:01:09.811Z,11.15
2023-04-29T19:04:14.019Z,8.25
2023-04-29T19:07:16.621Z,4.53
2023-04-29T19:10:19.254Z,4.18
2023-04-29T19:13:21.995Z,5.35
2023-04-29T19:16:24.888Z,8.07
2023-04-29T19:19:30.136Z,8.65
2023-04-29T19:22:32.664Z,6.05
2023-04-29T19:25:35.258Z,6.80
2023-04-29T19:28:38.071Z,2.70
2023-04-29T19:31:40.664Z,9.48
2023-04-29T19:34:44.568Z,3.63
2023-04-29T19:37:47.137Z,10.35
2023-04-29T19:40:49.866Z,5.95
2023-04-29T19:43:52.355Z,5.45
2023-04-29T19:46:55.289Z,4.55
2023-04-29T19:49:59.394Z,6.78
2023-04-29T19:53:01.918Z,8.00
2023-04-29T19:56:04.610Z,10.98
2023-04-29T19:59:07.169Z,9.88
2023-04-29T20:02:09.836Z,7.22
2023-04-29T20:05:13.803Z,9.77
2023-04-29T20:08:16.375Z,8.93
2023-04-29T20:11:18.988Z,8.07
2023-04-29T20:14:21.568Z,11.20
2023-04-29T20:17:24.287Z,15.63
2023-04-29T20:20:28.537Z,11.48
2023-04-29T20:23:31.758Z,8.27
2023-04-29T20:26:34.304Z,13.32
2023-04-29T20:29:36.867Z,11.63
2023-04-29T20:32:39.486Z,12.70
2023-04-29T20:35:43.419Z,10.48
2023-04-29T20:38:48.518Z,13.48
2023-04-29T20:41:51.554Z,13.07
2023-04-29T20:44:54.204Z,15.77
2023-04-29T20:47:56.768Z,10.40
2023-04-29T20:51:00.794Z,11.70
2023-04-29T20:54:03.424Z,9.82
2023-04-29T20:57:06.078Z,11.68
2023-04-29T21:00:09.818Z,9.80
2023-04-29T21:03:12.404Z,9.15
2023-04-29T21:06:17.069Z,14.32
2023-04-29T21:09:19.864Z,16.38
2023-04-29T21:12:22.441Z,16.80
2023-04-29T21:15:26.652Z,12.27
2023-04-29T21:18:29.256Z,13.93
2023-04-29T21:21:33.161Z,13.23
2023-04-29T21:24:35.749Z,19.58
2023-04-29T21:27:38.333Z,10.90
2023-04-29T21:30:40.944Z,12.10
2023-04-29T21:33:44.226Z,14.23
2023-04-29T21:36:48.187Z,13.68
2023-04-29T21:39:51.325Z,14.93
2023-04-29T21:42:55.149Z,16.58
2023-04-29T21:45:57.725Z,14.35
2023-04-29T21:49:00.490Z,15.77
2023-04-29T21:52:04.581Z,17.98
2023-04-29T21:55:07.612Z,27.20
2023-04-29T21:58:10.910Z,35.03
2023-04-29T22:01:27.217Z,74.78
2023-04-29T22:04:29.934Z,29.77
2023-04-29T22:07:33.808Z,23.67
2023-04-29T22:10:39.960Z,34.63
2023-04-29T22:13:45.051Z,15.80
2023-04-29T22:16:47.732Z,18.35
2023-04-29T22:19:50.376Z,18.58
2023-04-29T22:22:54.316Z,13.30
2023-04-29T22:25:56.876Z,17.10
2023-04-29T22:28:59.410Z,19.25
2023-04-29T22:32:02.076Z,21.50
2023-04-29T22:35:05.046Z,15.98
2023-04-29T22:38:09.517Z,19.48
2023-04-29T22:41:12.456Z,16.15
2023-04-29T22:44:15.333Z,19.77
2023-04-29T22:47:17.904Z,20.73
2023-04-29T22:50:20.604Z,22.33
2023-04-29T22:53:24.675Z,25.65
2023-04-29T22:56:28.674Z,19.83
2023-04-29T22:59:31.211Z,20.20
2023-04-29T23:02:33.759Z,18.40
2023-04-29T23:05:36.288Z,21.55
2023-04-29T23:08:40.189Z,19.75
2023-04-29T23:11:43.348Z,18.23
2023-04-29T23:14:45.854Z,21.38
2023-04-29T23:17:48.502Z,20.73
2023-04-29T23:20:51.376Z,23.88
2023-04-29T23:23:55.618Z,20.60
2023-04-29T23:26:58.164Z,25.30
2023-04-29T23:30:00.701Z,23.13
2023-04-29T23:33:03.263Z,20.90
2023-04-29T23:36:06.677Z,23.08
2023-04-29T23:39:10.530Z,23.08
2023-04-29T23:42:13.337Z,19.23
2023-04-29T23:45:15.993Z,19.75
2023-04-29T23:48:18.519Z,16.67
2023-04-29T23:51:21.048Z,15.95
2023-04-29T23:54:24.918Z,20.63
2023-04-29T23:57:27.448Z,19.00
